sensor_id;sensor_type;location;lat;lon;timestamp;pressure;altitude;pressure_sealevel;temperature;humidity
25130;BME280;13308;50.860;13.664;2023-02-16T07:07:39;97479.56;;;5.45;85.76
25130;BME280;13308;50.860;13.664;2023-02-16T07:10:04;97478.66;;;5.37;86.27
25130;BME280;13308;50.860;13.664;2023-02-16T07:12:30;97488.34;;;5.31;86.03
25130;BME280;13308;50.860;13.664;2023-02-16T07:14:55;97485.44;;;5.21;86.45
25130;BME280;13308;50.860;13.664;2023-02-16T07:17:21;97486.88;;;5.11;86.97
25130;BME280;13308;50.860;13.664;2023-02-16T07:19:46;97484.50;;;5.10;87.35
25130;BME280;13308;50.860;13.664;2023-02-16T07:22:11;97486.06;;;5.11;87.43
25130;BME280;13308;50.860;13.664;2023-02-16T07:24:37;97487.66;;;5.12;87.65
25130;BME280;13308;50.860;13.664;2023-02-16T07:27:02;97491.53;;;5.11;87.94
25130;BME280;13308;50.860;13.664;2023-02-16T07:29:29;97495.44;;;5.10;88.20
25130;BME280;13308;50.860;13.664;2023-02-16T07:31:54;97491.66;;;5.18;87.54
25130;BME280;13308;50.860;13.664;2023-02-16T07:34:21;97491.03;;;5.28;87.41
25130;BME280;13308;50.860;13.664;2023-02-16T07:36:47;97498.88;;;5.29;87.18
25130;BME280;13308;50.860;13.664;2023-02-16T07:39:12;97497.81;;;5.37;87.16
25130;BME280;13308;50.860;13.664;2023-02-16T07:41:37;97488.09;;;5.40;87.04
25130;BME280;13308;50.860;13.664;2023-02-16T07:44:06;97500.59;;;5.41;86.77
25130;BME280;13308;50.860;13.664;2023-02-16T07:46:32;97497.25;;;5.51;86.37
25130;BME280;13308;50.860;13.664;2023-02-16T07:48:57;97491.41;;;5.52;86.31
25130;BME280;13308;50.860;13.664;2023-02-16T07:51:24;97486.41;;;5.58;85.81
25130;BME280;13308;50.860;13.664;2023-02-16T07:53:50;97489.72;;;5.70;85.63
25130;BME280;13308;50.860;13.664;2023-02-16T07:56:30;97483.84;;;5.98;84.21
25130;BME280;13308;50.860;13.664;2023-02-16T07:58:58;97486.81;;;6.19;83.35
25130;BME280;13308;50.860;13.664;2023-02-16T08:01:24;97480.63;;;6.22;83.41
25130;BME280;13308;50.860;13.664;2023-02-16T08:03:51;97478.59;;;6.52;82.04
25130;BME280;13308;50.860;13.664;2023-02-16T08:06:16;97484.72;;;6.75;80.74
25130;BME280;13308;50.860;13.664;2023-02-16T08:08:42;97484.81;;;6.85;79.77
25130;BME280;13308;50.860;13.664;2023-02-16T08:13:34;97484.78;;;7.25;78.03
25130;BME280;13308;50.860;13.664;2023-02-16T08:15:59;97487.22;;;7.37;77.99
25130;BME280;13308;50.860;13.664;2023-02-16T08:18:24;97498.31;;;7.55;76.49
25130;BME280;13308;50.860;13.664;2023-02-16T08:20:50;97488.91;;;7.56;77.02
25130;BME280;13308;50.860;13.664;2023-02-16T08:23:15;97491.75;;;7.70;76.74
25130;BME280;13308;50.860;13.664;2023-02-16T08:25:40;97503.59;;;7.81;76.20
25130;BME280;13308;50.860;13.664;2023-02-16T08:28:06;97505.19;;;7.89;75.04
25130;BME280;13308;50.860;13.664;2023-02-16T08:30:32;97511.16;;;7.98;74.01
25130;BME280;13308;50.860;13.664;2023-02-16T08:32:59;97497.84;;;8.07;74.04
25130;BME280;13308;50.860;13.664;2023-02-16T08:35:27;97506.16;;;8.24;72.23
25130;BME280;13308;50.860;13.664;2023-02-16T08:37:54;97500.41;;;8.53;70.26
25130;BME280;13308;50.860;13.664;2023-02-16T08:40:20;97501.63;;;8.70;68.39
25130;BME280;13308;50.860;13.664;2023-02-16T08:42:48;97502.06;;;8.82;70.41
25130;BME280;13308;50.860;13.664;2023-02-16T08:45:14;97515.44;;;8.87;68.97
25130;BME280;13308;50.860;13.664;2023-02-16T08:47:39;97511.16;;;9.35;68.06
25130;BME280;13308;50.860;13.664;2023-02-16T08:50:05;97504.06;;;9.27;65.34
25130;BME280;13308;50.860;13.664;2023-02-16T08:52:30;97510.72;;;9.79;64.69
25130;BME280;13308;50.860;13.664;2023-02-16T08:54:56;97505.16;;;10.21;62.59
25130;BME280;13308;50.860;13.664;2023-02-16T08:57:21;97510.47;;;10.66;60.89
25130;BME280;13308;50.860;13.664;2023-02-16T08:59:46;97510.56;;;11.14;58.67
25130;BME280;13308;50.860;13.664;2023-02-16T09:02:31;97496.19;;;11.36;59.04
25130;BME280;13308;50.860;13.664;2023-02-16T09:04:57;97498.63;;;11.78;56.66
25130;BME280;13308;50.860;13.664;2023-02-16T09:07:23;97508.19;;;12.07;55.20
25130;BME280;13308;50.860;13.664;2023-02-16T09:09:48;97502.97;;;12.16;56.45
25130;BME280;13308;50.860;13.664;2023-02-16T09:12:13;97504.28;;;12.38;55.84
25130;BME280;13308;50.860;13.664;2023-02-16T09:14:39;97507.53;;;12.93;54.14
25130;BME280;13308;50.860;13.664;2023-02-16T09:17:06;97495.34;;;13.17;53.73
25130;BME280;13308;50.860;13.664;2023-02-16T09:19:31;97499.38;;;13.13;53.41
25130;BME280;13308;50.860;13.664;2023-02-16T09:21:57;97510.84;;;12.81;54.27
25130;BME280;13308;50.860;13.664;2023-02-16T09:24:22;97501.19;;;12.93;54.58
25130;BME280;13308;50.860;13.664;2023-02-16T09:26:47;97507.75;;;13.06;54.36
25130;BME280;13308;50.860;13.664;2023-02-16T09:29:13;97506.06;;;13.38;53.18
25130;BME280;13308;50.860;13.664;2023-02-16T09:31:39;97505.97;;;12.92;53.31
25130;BME280;13308;50.860;13.664;2023-02-16T09:34:06;97503.75;;;12.50;54.53
25130;BME280;13308;50.860;13.664;2023-02-16T09:36:32;97506.78;;;12.59;54.13
25130;BME280;13308;50.860;13.664;2023-02-16T09:38:58;97500.06;;;12.60;54.74
25130;BME280;13308;50.860;13.664;2023-02-16T09:41:33;97507.53;;;11.96;55.85
25130;BME280;13308;50.860;13.664;2023-02-16T09:46:29;97498.94;;;12.54;55.29
25130;BME280;13308;50.860;13.664;2023-02-16T09:48:55;97502.22;;;12.76;53.96
25130;BME280;13308;50.860;13.664;2023-02-16T09:51:24;97498.28;;;12.43;54.20
25130;BME280;13308;50.860;13.664;2023-02-16T09:53:58;97504.88;;;12.19;55.75
25130;BME280;13308;50.860;13.664;2023-02-16T09:56:53;97501.09;;;12.40;55.16
25130;BME280;13308;50.860;13.664;2023-02-16T10:02:33;97502.09;;;12.23;55.05
25130;BME280;13308;50.860;13.664;2023-02-16T10:08:09;97503.75;;;13.10;54.22
25130;BME280;13308;50.860;13.664;2023-02-16T10:10:52;97501.25;;;13.42;53.19
25130;BME280;13308;50.860;13.664;2023-02-16T10:13:26;97495.13;;;14.00;52.26
25130;BME280;13308;50.860;13.664;2023-02-16T10:15:56;97497.84;;;14.46;51.14
25130;BME280;13308;50.860;13.664;2023-02-16T10:18:44;97502.38;;;14.56;50.35
25130;BME280;13308;50.860;13.664;2023-02-16T10:21:16;97502.88;;;15.42;50.50
25130;BME280;13308;50.860;13.664;2023-02-16T10:23:54;97507.91;;;14.95;49.45
25130;BME280;13308;50.860;13.664;2023-02-16T10:26:32;97498.09;;;15.07;49.91
25130;BME280;13308;50.860;13.664;2023-02-16T10:29:05;97506.94;;;14.66;48.80
25130;BME280;13308;50.860;13.664;2023-02-16T10:31:53;97510.06;;;15.39;48.06
25130;BME280;13308;50.860;13.664;2023-02-16T10:34:44;97516.72;;;15.61;48.13
25130;BME280;13308;50.860;13.664;2023-02-16T10:37:30;97518.78;;;15.06;48.17
25130;BME280;13308;50.860;13.664;2023-02-16T10:43:09;97518.59;;;15.64;47.50
25130;BME280;13308;50.860;13.664;2023-02-16T10:45:45;97525.88;;;14.71;49.66
25130;BME280;13308;50.860;13.664;2023-02-16T10:48:13;97521.69;;;15.18;48.40
25130;BME280;13308;50.860;13.664;2023-02-16T10:50:54;97514.53;;;14.82;49.52
25130;BME280;13308;50.860;13.664;2023-02-16T10:53:42;97513.66;;;15.40;48.86
25130;BME280;13308;50.860;13.664;2023-02-16T10:58:51;97512.38;;;15.60;47.99
25130;BME280;13308;50.860;13.664;2023-02-16T11:01:30;97497.97;;;15.30;48.88
25130;BME280;13308;50.860;13.664;2023-02-16T11:03:59;97508.91;;;14.85;50.26
25130;BME280;13308;50.860;13.664;2023-02-16T11:06:25;97507.19;;;14.91;49.29
25130;BME280;13308;50.860;13.664;2023-02-16T11:08:56;97504.91;;;14.86;49.20
25130;BME280;13308;50.860;13.664;2023-02-16T11:11:25;97490.25;;;14.27;50.22
25130;BME280;13308;50.860;13.664;2023-02-16T11:13:57;97489.47;;;14.85;49.71
25130;BME280;13308;50.860;13.664;2023-02-16T11:16:24;97484.06;;;14.78;49.08
25130;BME280;13308;50.860;13.664;2023-02-16T11:19:27;97487.78;;;15.23;48.83
25130;BME280;13308;50.860;13.664;2023-02-16T11:21:56;97487.31;;;15.92;48.26
25130;BME280;13308;50.860;13.664;2023-02-16T11:24:28;97489.97;;;16.12;48.17
25130;BME280;13308;50.860;13.664;2023-02-16T11:29:38;97487.50;;;15.85;47.11
25130;BME280;13308;50.860;13.664;2023-02-16T11:32:07;97489.75;;;15.90;47.74
25130;BME280;13308;50.860;13.664;2023-02-16T11:34:40;97486.25;;;16.59;47.12
25130;BME280;13308;50.860;13.664;2023-02-16T11:37:13;97484.56;;;16.90;46.60
25130;BME280;13308;50.860;13.664;2023-02-16T11:39:52;97475.53;;;16.99;46.28
25130;BME280;13308;50.860;13.664;2023-02-16T11:42:34;97475.06;;;15.42;47.41
25130;BME280;13308;50.860;13.664;2023-02-16T11:45:05;97466.78;;;15.86;47.48
25130;BME280;13308;50.860;13.664;2023-02-16T11:47:36;97478.81;;;16.56;46.63
25130;BME280;13308;50.860;13.664;2023-02-16T11:50:21;97464.25;;;16.77;45.57
25130;BME280;13308;50.860;13.664;2023-02-16T11:52:53;97471.56;;;17.50;43.70
25130;BME280;13308;50.860;13.664;2023-02-16T11:55:22;97464.09;;;17.47;44.66
25130;BME280;13308;50.860;13.664;2023-02-16T11:57:48;97461.66;;;16.58;44.30
25130;BME280;13308;50.860;13.664;2023-02-16T12:00:18;97455.19;;;15.43;45.88
25130;BME280;13308;50.860;13.664;2023-02-16T12:06:04;97455.72;;;15.54;44.72
25130;BME280;13308;50.860;13.664;2023-02-16T12:11:21;97456.47;;;15.55;44.12
25130;BME280;13308;50.860;13.664;2023-02-16T12:14:11;97444.69;;;14.99;45.45
25130;BME280;13308;50.860;13.664;2023-02-16T12:20:04;97444.88;;;15.88;43.88
25130;BME280;13308;50.860;13.664;2023-02-16T12:22:45;97445.22;;;15.90;43.49
25130;BME280;13308;50.860;13.664;2023-02-16T12:30:59;97442.97;;;15.85;43.79
25130;BME280;13308;50.860;13.664;2023-02-16T12:33:40;97434.50;;;15.60;44.36
25130;BME280;13308;50.860;13.664;2023-02-16T12:40:15;97423.19;;;15.51;44.62
25130;BME280;13308;50.860;13.664;2023-02-16T12:45:26;97429.06;;;15.85;45.37
25130;BME280;13308;50.860;13.664;2023-02-16T12:48:06;97425.06;;;15.70;44.42
25130;BME280;13308;50.860;13.664;2023-02-16T12:50:39;97429.69;;;15.77;45.14
25130;BME280;13308;50.860;13.664;2023-02-16T12:53:21;97430.84;;;15.92;44.91
25130;BME280;13308;50.860;13.664;2023-02-16T12:55:58;97424.03;;;15.64;45.45
25130;BME280;13308;50.860;13.664;2023-02-16T12:58:29;97430.56;;;16.47;44.04
25130;BME280;13308;50.860;13.664;2023-02-16T13:01:00;97423.16;;;15.83;44.95
25130;BME280;13308;50.860;13.664;2023-02-16T13:03:43;97425.69;;;16.06;45.48
25130;BME280;13308;50.860;13.664;2023-02-16T13:06:32;97420.22;;;16.03;45.00
25130;BME280;13308;50.860;13.664;2023-02-16T13:09:33;97417.28;;;15.65;45.38
25130;BME280;13308;50.860;13.664;2023-02-16T13:14:34;97405.28;;;15.68;45.32
25130;BME280;13308;50.860;13.664;2023-02-16T13:17:10;97416.69;;;16.02;45.47
25130;BME280;13308;50.860;13.664;2023-02-16T13:19:45;97418.03;;;15.82;45.57
25130;BME280;13308;50.860;13.664;2023-02-16T13:25:25;97418.47;;;16.37;45.09
25130;BME280;13308;50.860;13.664;2023-02-16T13:28:06;97416.22;;;16.32;45.13
25130;BME280;13308;50.860;13.664;2023-02-16T13:30:39;97414.50;;;16.22;44.18
25130;BME280;13308;50.860;13.664;2023-02-16T13:36:24;97407.50;;;16.30;44.11
25130;BME280;13308;50.860;13.664;2023-02-16T13:42:04;97405.38;;;15.65;45.77
25130;BME280;13308;50.860;13.664;2023-02-16T13:44:40;97412.78;;;16.12;44.92
25130;BME280;13308;50.860;13.664;2023-02-16T13:47:13;97407.63;;;16.27;44.02
25130;BME280;13308;50.860;13.664;2023-02-16T13:49:44;97403.44;;;16.35;44.25
25130;BME280;13308;50.860;13.664;2023-02-16T13:52:32;97398.72;;;16.19;44.61
25130;BME280;13308;50.860;13.664;2023-02-16T13:55:04;97412.19;;;16.87;43.10
25130;BME280;13308;50.860;13.664;2023-02-16T13:57:57;97403.03;;;16.20;44.03
25130;BME280;13308;50.860;13.664;2023-02-16T14:05:35;97412.63;;;16.19;43.99
25130;BME280;13308;50.860;13.664;2023-02-16T14:08:16;97412.31;;;16.83;44.26
25130;BME280;13308;50.860;13.664;2023-02-16T14:13:33;97425.16;;;17.31;43.09
25130;BME280;13308;50.860;13.664;2023-02-16T14:18:45;97424.53;;;17.73;42.08
25130;BME280;13308;50.860;13.664;2023-02-16T14:23:57;97430.75;;;18.97;40.39
25130;BME280;13308;50.860;13.664;2023-02-16T14:26:23;97434.31;;;18.46;40.21
25130;BME280;13308;50.860;13.664;2023-02-16T14:28:57;97426.84;;;18.21;40.18
25130;BME280;13308;50.860;13.664;2023-02-16T14:31:25;97421.91;;;17.07;42.24
25130;BME280;13308;50.860;13.664;2023-02-16T14:34:02;97416.22;;;16.32;43.86
25130;BME280;13308;50.860;13.664;2023-02-16T14:36:29;97407.41;;;15.48;45.50
25130;BME280;13308;50.860;13.664;2023-02-16T14:38:57;97404.09;;;14.70;47.25
25130;BME280;13308;50.860;13.664;2023-02-16T14:41:32;97402.03;;;13.99;48.11
25130;BME280;13308;50.860;13.664;2023-02-16T14:46:55;97406.06;;;13.06;50.18
25130;BME280;13308;50.860;13.664;2023-02-16T14:55:21;97411.97;;;12.25;52.29
25130;BME280;13308;50.860;13.664;2023-02-16T15:00:52;97410.88;;;11.86;52.72
25130;BME280;13308;50.860;13.664;2023-02-16T15:03:22;97415.63;;;11.85;52.82
25130;BME280;13308;50.860;13.664;2023-02-16T15:05:54;97414.25;;;12.00;52.60
25130;BME280;13308;50.860;13.664;2023-02-16T15:08:27;97411.25;;;11.88;52.85
25130;BME280;13308;50.860;13.664;2023-02-16T15:11:13;97408.72;;;11.67;53.82
25130;BME280;13308;50.860;13.664;2023-02-16T15:13:40;97416.91;;;11.33;54.68
25130;BME280;13308;50.860;13.664;2023-02-16T15:16:07;97413.53;;;11.15;55.09
25130;BME280;13308;50.860;13.664;2023-02-16T15:18:47;97413.59;;;11.08;55.41
25130;BME280;13308;50.860;13.664;2023-02-16T15:21:20;97408.66;;;10.82;56.10
25130;BME280;13308;50.860;13.664;2023-02-16T15:23:51;97409.97;;;10.67;56.57
25130;BME280;13308;50.860;13.664;2023-02-16T15:26:20;97396.97;;;10.61;56.64
25130;BME280;13308;50.860;13.664;2023-02-16T15:28:52;97402.94;;;10.52;56.72
25130;BME280;13308;50.860;13.664;2023-02-16T15:31:18;97397.94;;;10.33;56.83
25130;BME280;13308;50.860;13.664;2023-02-16T15:33:56;97401.47;;;10.37;56.31
25130;BME280;13308;50.860;13.664;2023-02-16T15:36:28;97392.56;;;10.12;56.83
25130;BME280;13308;50.860;13.664;2023-02-16T15:38:57;97390.97;;;10.11;56.50
25130;BME280;13308;50.860;13.664;2023-02-16T15:41:31;97385.50;;;9.94;56.97
25130;BME280;13308;50.860;13.664;2023-02-16T15:43:59;97381.63;;;9.84;57.02
25130;BME280;13308;50.860;13.664;2023-02-16T15:46:41;97383.28;;;9.64;57.48
25130;BME280;13308;50.860;13.664;2023-02-16T15:49:21;97379.34;;;9.51;58.17
25130;BME280;13308;50.860;13.664;2023-02-16T15:51:50;97382.56;;;9.25;58.79
25130;BME280;13308;50.860;13.664;2023-02-16T15:54:30;97378.28;;;8.96;60.47
25130;BME280;13308;50.860;13.664;2023-02-16T15:57:13;97382.19;;;8.60;61.68
25130;BME280;13308;50.860;13.664;2023-02-16T15:59:49;97384.56;;;8.58;61.82
25130;BME280;13308;50.860;13.664;2023-02-16T16:04:53;97380.19;;;8.26;62.88
25130;BME280;13308;50.860;13.664;2023-02-16T16:09:51;97378.63;;;8.22;63.07
25130;BME280;13308;50.860;13.664;2023-02-16T16:12:17;97369.16;;;8.16;63.11
25130;BME280;13308;50.860;13.664;2023-02-16T16:14:49;97375.78;;;8.07;63.89
25130;BME280;13308;50.860;13.664;2023-02-16T16:17:18;97367.50;;;7.94;64.26
25130;BME280;13308;50.860;13.664;2023-02-16T16:19:45;97372.16;;;7.72;65.97
25130;BME280;13308;50.860;13.664;2023-02-16T16:24:57;97371.19;;;7.44;67.02
25130;BME280;13308;50.860;13.664;2023-02-16T16:27:32;97375.13;;;7.43;66.36
25130;BME280;13308;50.860;13.664;2023-02-16T16:30:30;97389.28;;;7.52;65.80
25130;BME280;13308;50.860;13.664;2023-02-16T16:33:06;97386.91;;;7.43;65.28
25130;BME280;13308;50.860;13.664;2023-02-16T16:35:37;97380.56;;;7.36;65.90
25130;BME280;13308;50.860;13.664;2023-02-16T16:38:06;97378.56;;;7.26;66.33
25130;BME280;13308;50.860;13.664;2023-02-16T16:40:49;97377.28;;;7.13;66.37
25130;BME280;13308;50.860;13.664;2023-02-16T16:43:16;97390.47;;;6.93;68.17
25130;BME280;13308;50.860;13.664;2023-02-16T16:45:48;97384.91;;;6.83;68.58
25130;BME280;13308;50.860;13.664;2023-02-16T16:48:19;97378.50;;;6.65;69.54
25130;BME280;13308;50.860;13.664;2023-02-16T16:50:48;97374.44;;;6.45;70.48
25130;BME280;13308;50.860;13.664;2023-02-16T16:55:57;97378.84;;;6.16;71.83
25130;BME280;13308;50.860;13.664;2023-02-16T16:58:23;97376.03;;;6.09;72.21
25130;BME280;13308;50.860;13.664;2023-02-16T17:00:48;97377.56;;;6.07;72.06
25130;BME280;13308;50.860;13.664;2023-02-16T17:03:16;97370.09;;;6.04;72.33
25130;BME280;13308;50.860;13.664;2023-02-16T17:05:42;97368.59;;;6.10;71.66
25130;BME280;13308;50.860;13.664;2023-02-16T17:08:09;97367.81;;;6.09;72.40
25130;BME280;13308;50.860;13.664;2023-02-16T17:10:36;97367.47;;;6.14;71.14
25130;BME280;13308;50.860;13.664;2023-02-16T17:13:03;97368.72;;;6.24;70.49
25130;BME280;13308;50.860;13.664;2023-02-16T17:15:41;97376.41;;;6.48;69.58
25130;BME280;13308;50.860;13.664;2023-02-16T17:18:12;97370.84;;;6.41;69.09
25130;BME280;13308;50.860;13.664;2023-02-16T17:20:39;97375.59;;;6.44;69.38
25130;BME280;13308;50.860;13.664;2023-02-16T17:23:04;97370.53;;;6.49;68.25
25130;BME280;13308;50.860;13.664;2023-02-16T17:25:32;97379.97;;;6.52;68.05
25130;BME280;13308;50.860;13.664;2023-02-16T17:27:58;97383.19;;;6.61;67.68
25130;BME280;13308;50.860;13.664;2023-02-16T17:30:23;97379.69;;;6.64;67.37
25130;BME280;13308;50.860;13.664;2023-02-16T17:32:49;97377.00;;;6.71;67.52
25130;BME280;13308;50.860;13.664;2023-02-16T17:35:14;97373.41;;;6.63;67.59
25130;BME280;13308;50.860;13.664;2023-02-16T17:37:40;97378.06;;;6.59;67.98
25130;BME280;13308;50.860;13.664;2023-02-16T17:40:12;97368.38;;;6.69;66.78
25130;BME280;13308;50.860;13.664;2023-02-16T17:42:40;97363.72;;;6.73;67.34
25130;BME280;13308;50.860;13.664;2023-02-16T17:45:06;97365.16;;;6.60;67.59
25130;BME280;13308;50.860;13.664;2023-02-16T17:47:31;97360.16;;;6.69;66.21
25130;BME280;13308;50.860;13.664;2023-02-16T17:49:56;97350.47;;;6.85;63.97
25130;BME280;13308;50.860;13.664;2023-02-16T17:52:22;97361.50;;;6.96;62.85
25130;BME280;13308;50.860;13.664;2023-02-16T17:54:49;97357.75;;;7.21;61.50
25130;BME280;13308;50.860;13.664;2023-02-16T17:57:14;97350.72;;;7.24;60.69
25130;BME280;13308;50.860;13.664;2023-02-16T17:59:40;97355.41;;;7.20;61.17
25130;BME280;13308;50.860;13.664;2023-02-16T18:02:08;97346.91;;;7.39;59.18
25130;BME280;13308;50.860;13.664;2023-02-16T18:04:34;97357.91;;;7.46;59.02
25130;BME280;13308;50.860;13.664;2023-02-16T18:07:14;97350.44;;;7.46;59.42
25130;BME280;13308;50.860;13.664;2023-02-16T18:09:39;97352.41;;;7.46;59.44
25130;BME280;13308;50.860;13.664;2023-02-16T18:12:05;97353.91;;;7.33;59.83
25130;BME280;13308;50.860;13.664;2023-02-16T18:14:31;97347.22;;;7.27;60.26
25130;BME280;13308;50.860;13.664;2023-02-16T18:16:56;97341.75;;;7.27;59.84
25130;BME280;13308;50.860;13.664;2023-02-16T18:19:24;97354.34;;;7.42;58.47
25130;BME280;13308;50.860;13.664;2023-02-16T18:21:50;97351.66;;;7.56;57.80
25130;BME280;13308;50.860;13.664;2023-02-16T18:24:15;97352.53;;;7.74;56.83
25130;BME280;13308;50.860;13.664;2023-02-16T18:26:40;97362.72;;;7.70;57.51
25130;BME280;13308;50.860;13.664;2023-02-16T18:29:06;97366.69;;;7.83;56.73
25130;BME280;13308;50.860;13.664;2023-02-16T18:31:31;97366.31;;;7.88;56.91
25130;BME280;13308;50.860;13.664;2023-02-16T18:33:56;97372.22;;;7.97;56.59
25130;BME280;13308;50.860;13.664;2023-02-16T18:36:22;97378.13;;;7.95;56.76
25130;BME280;13308;50.860;13.664;2023-02-16T18:38:47;97375.38;;;7.95;57.04
25130;BME280;13308;50.860;13.664;2023-02-16T18:41:12;97375.38;;;7.92;57.68
25130;BME280;13308;50.860;13.664;2023-02-16T18:43:38;97375.38;;;7.99;57.78
25130;BME280;13308;50.860;13.664;2023-02-16T18:46:05;97382.44;;;7.96;57.81
25130;BME280;13308;50.860;13.664;2023-02-16T18:48:30;97378.50;;;7.97;58.50
25130;BME280;13308;50.860;13.664;2023-02-16T18:50:56;97369.88;;;7.99;58.77
25130;BME280;13308;50.860;13.664;2023-02-16T18:53:21;97369.88;;;7.95;59.11
25130;BME280;13308;50.860;13.664;2023-02-16T18:55:46;97376.13;;;7.96;60.09
25130;BME280;13308;50.860;13.664;2023-02-16T18:58:13;97375.75;;;7.94;60.57
25130;BME280;13308;50.860;13.664;2023-02-16T19:00:39;97368.34;;;8.05;61.13
25130;BME280;13308;50.860;13.664;2023-02-16T19:03:04;97379.31;;;8.01;62.34
25130;BME280;13308;50.860;13.664;2023-02-16T19:05:30;97375.78;;;8.01;64.32
25130;BME280;13308;50.860;13.664;2023-02-16T19:07:56;97371.88;;;8.12;65.60
25130;BME280;13308;50.860;13.664;2023-02-16T19:10:21;97382.47;;;8.13;66.80
25130;BME280;13308;50.860;13.664;2023-02-16T19:12:47;97376.97;;;8.10;68.68
25130;BME280;13308;50.860;13.664;2023-02-16T19:15:12;97384.03;;;8.14;69.84
25130;BME280;13308;50.860;13.664;2023-02-16T19:17:38;97390.31;;;8.12;71.08
25130;BME280;13308;50.860;13.664;2023-02-16T19:20:05;97388.75;;;8.11;72.41
25130;BME280;13308;50.860;13.664;2023-02-16T19:22:30;97392.66;;;8.06;73.66
25130;BME280;13308;50.860;13.664;2023-02-16T19:24:57;97394.63;;;8.02;74.83
25130;BME280;13308;50.860;13.664;2023-02-16T19:27:23;97393.44;;;8.07;75.58
